Time;durP1;ratioP1;P1;durP2;ratioP2;P2;SDS_P1;SDS_P2;PMS_P1;PMS_P2;Temp;Humidity;BMP_temperature;BMP_pressure;BME280_temperature;BME280_humidity;BME280_pressure;Samples;Min_cycle;Max_cycle;Signal;HPM_P1;HPM_P2
2021/07/19 00:01:55;;;;;;;4.97;1.73;;;23.20;86.50;;;;;;5029870;28;20511;-83
2021/07/19 00:04:21;;;;;;;5.22;1.92;;;23.10;86.90;;;;;;5029807;28;20104;-84
2021/07/19 00:06:47;;;;;;;6.57;1.85;;;23.10;87.50;;;;;;5030396;28;20036;-83
2021/07/19 00:09:13;;;;;;;9.43;2.00;;;23.10;87.50;;;;;;5029964;28;20676;-83
2021/07/19 00:11:39;;;;;;;6.50;1.67;;;23.00;87.90;;;;;;5029954;28;20017;-83
2021/07/19 00:14:06;;;;;;;3.83;1.65;;;23.00;88.60;;;;;;5029768;28;20374;-83
2021/07/19 00:16:34;;;;;;;7.22;1.50;;;22.90;88.70;;;;;;5030055;28;20147;-83
2021/07/19 00:19:00;;;;;;;2.50;1.70;;;22.90;89.20;;;;;;5028147;28;20029;-83
2021/07/19 00:21:26;;;;;;;7.72;2.10;;;22.90;89.10;;;;;;5029662;28;20022;-83
2021/07/19 00:23:52;;;;;;;7.60;1.63;;;22.80;90.40;;;;;;5028629;28;20172;-83
2021/07/19 00:26:19;;;;;;;5.07;1.77;;;22.80;90.30;;;;;;5030173;28;20017;-83
2021/07/19 00:28:46;;;;;;;4.50;1.60;;;22.80;90.10;;;;;;5029580;28;20045;-83
2021/07/19 00:31:12;;;;;;;4.38;1.80;;;22.70;90.50;;;;;;5029967;28;20501;-83
2021/07/19 00:33:38;;;;;;;6.68;2.08;;;22.70;90.40;;;;;;5029541;28;20034;-83
2021/07/19 00:36:04;;;;;;;3.78;1.77;;;22.70;90.90;;;;;;5029775;28;20071;-83
2021/07/19 00:38:30;;;;;;;5.22;1.80;;;22.60;91.20;;;;;;5027857;28;20437;-83
2021/07/19 00:40:56;;;;;;;4.00;1.63;;;22.60;91.50;;;;;;5029605;28;20566;-83
2021/07/19 00:43:21;;;;;;;4.22;2.10;;;22.50;91.50;;;;;;5029864;28;20044;-83
2021/07/19 00:45:47;;;;;;;7.30;2.10;;;22.50;92.00;;;;;;5029402;28;20021;-83
2021/07/19 00:48:14;;;;;;;7.80;2.25;;;22.40;91.90;;;;;;5029827;28;20038;-83
2021/07/19 00:50:40;;;;;;;9.98;2.35;;;22.40;92.00;;;;;;5031859;28;20052;-83
2021/07/19 00:53:07;;;;;;;2.35;1.70;;;22.30;92.30;;;;;;5033768;28;20061;-83
2021/07/19 00:55:42;;;;;;;5.70;2.17;;;22.30;92.60;;;;;;5033558;28;20398;-83
2021/07/19 00:58:09;;;;;;;4.82;1.80;;;22.30;92.80;;;;;;5029532;28;20033;-83
2021/07/19 01:00:37;;;;;;;4.43;1.92;;;22.30;92.90;;;;;;5033500;28;20262;-83
2021/07/19 01:03:06;;;;;;;5.45;2.20;;;22.20;93.00;;;;;;5033201;28;20061;-83
2021/07/19 01:05:36;;;;;;;2.85;1.90;;;22.20;93.10;;;;;;5033315;28;20030;-82
2021/07/19 01:08:03;;;;;;;3.42;1.90;;;22.10;93.50;;;;;;5031620;28;20025;-83
2021/07/19 01:10:31;;;;;;;3.55;2.08;;;22.10;93.90;;;;;;5033135;28;20441;-83
2021/07/19 01:12:57;;;;;;;8.27;2.10;;;22.00;94.00;;;;;;5032821;28;20486;-83
2021/07/19 01:15:25;;;;;;;5.15;2.00;;;22.00;94.00;;;;;;5032781;28;20528;-83
2021/07/19 01:17:51;;;;;;;5.57;2.17;;;22.00;94.40;;;;;;5033115;28;20029;-83
2021/07/19 01:20:19;;;;;;;3.10;2.45;;;22.00;94.40;;;;;;5031775;28;20444;-82
2021/07/19 01:23:06;;;;;;;4.95;2.25;;;22.00;94.60;;;;;;5033070;28;20021;-83
2021/07/19 01:26:06;;;;;;;8.23;2.08;;;21.90;94.90;;;;;;5030282;28;20452;-83
2021/07/19 01:28:32;;;;;;;7.63;2.60;;;21.90;95.30;;;;;;5028125;28;20041;-83
2021/07/19 01:31:03;;;;;;;8.48;2.50;;;21.90;95.30;;;;;;5032988;28;20029;-83
2021/07/19 01:33:30;;;;;;;5.38;2.63;;;21.90;95.70;;;;;;5033446;28;20024;-82
2021/07/19 01:35:59;;;;;;;4.82;2.30;;;21.90;95.70;;;;;;5031365;28;20021;-83
2021/07/19 01:38:26;;;;;;;9.43;2.60;;;21.90;95.90;;;;;;5032688;28;20501;-83
2021/07/19 01:40:52;;;;;;;8.13;2.70;;;21.80;96.30;;;;;;5032894;28;20057;-83
2021/07/19 01:43:19;;;;;;;6.68;2.60;;;21.80;96.40;;;;;;5033245;28;20025;-83
2021/07/19 01:45:46;;;;;;;5.20;2.92;;;21.80;96.60;;;;;;5032261;28;20517;-82
2021/07/19 01:48:13;;;;;;;4.93;2.72;;;21.70;97.00;;;;;;5032486;28;20040;-82
2021/07/19 01:50:39;;;;;;;8.05;3.05;;;21.70;97.00;;;;;;5032410;28;20072;-82
2021/07/19 01:53:05;;;;;;;4.18;2.92;;;21.70;97.30;;;;;;5032399;28;20029;-82
2021/07/19 01:55:33;;;;;;;8.25;2.90;;;21.60;97.70;;;;;;5032371;28;20109;-82
2021/07/19 01:57:59;;;;;;;8.43;3.25;;;21.60;98.20;;;;;;5032367;28;20074;-81
2021/07/19 02:00:26;;;;;;;4.85;2.85;;;21.60;98.30;;;;;;5031815;28;20389;-82
2021/07/19 02:02:52;;;;;;;7.35;3.65;;;21.60;98.20;;;;;;5032281;28;20053;-82
2021/07/19 02:05:20;;;;;;;5.75;3.05;;;21.60;98.30;;;;;;5032209;28;20056;-83
2021/07/19 02:07:49;;;;;;;4.72;2.72;;;21.60;98.70;;;;;;5031820;28;20028;-82
2021/07/19 02:10:16;;;;;;;7.60;3.53;;;21.60;98.70;;;;;;5032065;28;20029;-82
2021/07/19 02:12:43;;;;;;;5.53;3.25;;;21.50;99.20;;;;;;5031870;28;20430;-82
2021/07/19 02:15:15;;;;;;;6.80;3.22;;;21.50;99.30;;;;;;5031780;28;20029;-82
2021/07/19 02:17:50;;;;;;;6.90;3.35;;;21.50;99.40;;;;;;5032020;28;20446;-83
2021/07/19 02:20:17;;;;;;;4.32;2.97;;;21.50;99.60;;;;;;5029327;28;20474;-82
2021/07/19 02:22:46;;;;;;;5.38;2.97;;;21.60;99.80;;;;;;5031560;28;20025;-82
2021/07/19 02:25:13;;;;;;;4.53;3.10;;;21.50;99.90;;;;;;5031603;28;20021;-82
2021/07/19 02:27:42;;;;;;;9.52;3.25;;;21.40;99.90;;;;;;5031568;28;20079;-82
2021/07/19 02:30:11;;;;;;;4.88;2.90;;;21.40;99.90;;;;;;5031559;28;20076;-82
2021/07/19 02:32:39;;;;;;;9.40;3.20;;;21.40;99.90;;;;;;5031734;28;20076;-82
2021/07/19 02:35:06;;;;;;;5.13;3.22;;;21.40;99.90;;;;;;5031560;28;20022;-82
2021/07/19 02:37:43;;;;;;;7.25;3.00;;;21.40;99.90;;;;;;5031444;28;20545;-82
2021/07/19 02:40:13;;;;;;;4.53;3.20;;;21.40;99.90;;;;;;5031264;28;20061;-82
2021/07/19 02:42:44;;;;;;;7.72;3.40;;;21.30;99.90;;;;;;5023587;28;20020;-82
2021/07/19 02:45:16;;;;;;;4.75;3.30;;;21.30;99.90;;;;;;5031176;28;20018;-81
2021/07/19 02:47:44;;;;;;;6.90;3.50;;;21.30;99.90;;;;;;5030134;28;20520;-82
2021/07/19 02:50:12;;;;;;;4.75;3.20;;;21.20;99.90;;;;;;5031291;28;20103;-82
2021/07/19 02:52:39;;;;;;;8.68;3.42;;;21.20;99.90;;;;;;5031261;28;20017;-82
2021/07/19 02:55:07;;;;;;;5.45;3.15;;;21.20;99.90;;;;;;5031466;28;20029;-82
2021/07/19 02:57:36;;;;;;;6.03;3.53;;;21.20;99.90;;;;;;5031277;28;20025;-82
2021/07/19 03:00:13;;;;;;;10.05;3.28;;;21.20;99.90;;;;;;5031308;28;20283;-82
2021/07/19 03:02:43;;;;;;;10.73;3.85;;;21.10;99.90;;;;;;5031042;28;20029;-82
2021/07/19 03:05:10;;;;;;;8.80;3.58;;;21.10;99.90;;;;;;5031190;28;20037;-82
2021/07/19 03:07:38;;;;;;;6.93;3.55;;;21.10;99.90;;;;;;5030966;28;20026;-82
2021/07/19 03:10:08;;;;;;;7.35;3.55;;;21.00;99.90;;;;;;5023125;28;20049;-82
2021/07/19 03:12:37;;;;;;;6.32;3.67;;;21.00;99.90;;;;;;5028917;28;20033;-82
2021/07/19 03:15:05;;;;;;;7.85;3.95;;;21.00;99.90;;;;;;5030919;28;20024;-82
2021/07/19 03:17:32;;;;;;;5.45;3.70;;;21.00;99.90;;;;;;5030748;28;20029;-83
2021/07/19 03:19:59;;;;;;;7.93;3.72;;;21.00;99.90;;;;;;5030556;28;20009;-82
2021/07/19 03:22:26;;;;;;;4.72;3.60;;;21.00;99.90;;;;;;5031775;28;20029;-82
2021/07/19 03:24:54;;;;;;;7.00;3.47;;;21.00;99.90;;;;;;5032279;28;20022;-82
2021/07/19 03:27:23;;;;;;;4.32;3.25;;;20.90;99.90;;;;;;5032451;28;20482;-82
2021/07/19 03:29:51;;;;;;;6.97;3.70;;;20.90;99.90;;;;;;5032119;28;20029;-82
2021/07/19 03:32:22;;;;;;;12.38;3.72;;;20.80;99.90;;;;;;5042886;28;20028;-82
2021/07/19 03:34:48;;;;;;;5.13;3.10;;;20.80;99.90;;;;;;5044459;28;20062;-82
2021/07/19 03:37:16;;;;;;;6.93;4.13;;;20.80;99.90;;;;;;5043953;28;20048;-82
2021/07/19 03:39:43;;;;;;;4.38;3.35;;;20.80;99.90;;;;;;5040599;28;20045;-82
2021/07/19 03:42:11;;;;;;;6.25;3.92;;;20.80;99.90;;;;;;5044820;28;20546;-81
2021/07/19 03:44:38;;;;;;;5.88;3.40;;;20.80;99.90;;;;;;5044138;28;20037;-82
2021/07/19 03:47:04;;;;;;;6.40;3.70;;;20.70;99.90;;;;;;5044814;28;20236;-82
2021/07/19 03:49:32;;;;;;;6.63;4.00;;;20.80;99.90;;;;;;5040407;28;20536;-82
2021/07/19 03:51:58;;;;;;;7.13;3.70;;;20.70;99.90;;;;;;5043649;28;20057;-82
2021/07/19 03:54:24;;;;;;;10.10;3.80;;;20.60;99.90;;;;;;5043954;28;20100;-83
2021/07/19 03:56:50;;;;;;;6.10;3.50;;;20.60;99.90;;;;;;5040277;28;20120;-82
2021/07/19 03:59:20;;;;;;;7.03;3.83;;;20.60;99.90;;;;;;5031367;28;20512;-82
2021/07/19 04:01:47;;;;;;;5.22;3.80;;;20.50;99.90;;;;;;5030303;28;20025;-82
2021/07/19 04:04:19;;;;;;;13.07;3.92;;;20.50;99.90;;;;;;5030003;28;20107;-82
2021/07/19 04:06:45;;;;;;;7.75;3.97;;;20.50;99.90;;;;;;5031548;28;20048;-81
2021/07/19 04:09:12;;;;;;;5.93;3.67;;;20.40;99.90;;;;;;5030259;28;20037;-82
2021/07/19 04:11:39;;;;;;;7.75;3.53;;;20.40;99.90;;;;;;5029840;28;20018;-82
2021/07/19 04:14:10;;;;;;;5.57;3.65;;;20.40;99.90;;;;;;5029803;28;20048;-82
2021/07/19 04:16:36;;;;;;;6.38;4.32;;;20.40;99.90;;;;;;5029886;28;20024;-82
2021/07/19 04:19:02;;;;;;;6.68;4.22;;;20.40;99.90;;;;;;5030019;28;20637;-81
2021/07/19 04:21:31;;;;;;;6.22;3.88;;;20.30;99.90;;;;;;5030103;28;20283;-82
2021/07/19 04:23:57;;;;;;;8.40;4.60;;;20.30;99.90;;;;;;5029448;28;20033;-82
2021/07/19 04:26:23;;;;;;;8.38;4.78;;;20.30;99.90;;;;;;5029699;28;20148;-82
2021/07/19 04:28:49;;;;;;;10.23;5.18;;;20.20;99.90;;;;;;5029637;28;20057;-82
2021/07/19 04:31:16;;;;;;;8.05;5.30;;;20.20;99.90;;;;;;5030010;28;20532;-82
2021/07/19 04:33:49;;;;;;;8.13;5.00;;;20.20;99.90;;;;;;5029614;28;20026;-82
2021/07/19 04:36:17;;;;;;;10.93;5.33;;;20.20;99.90;;;;;;5029875;28;20035;-82
2021/07/19 04:38:44;;;;;;;11.98;4.97;;;20.20;99.90;;;;;;5029472;28;20057;-81
2021/07/19 04:41:10;;;;;;;7.63;5.10;;;20.20;99.90;;;;;;5029898;28;20025;-81
2021/07/19 04:43:35;;;;;;;9.55;5.13;;;20.20;99.90;;;;;;5029978;28;20101;-81
2021/07/19 04:46:01;;;;;;;9.30;4.88;;;20.30;99.90;;;;;;5028299;28;20456;-81
2021/07/19 04:48:27;;;;;;;8.35;4.65;;;20.30;99.90;;;;;;5028118;28;20224;-82
2021/07/19 04:50:52;;;;;;;8.25;3.90;;;20.30;99.90;;;;;;5029524;28;20039;-82
2021/07/19 04:53:18;;;;;;;7.80;4.20;;;20.30;99.90;;;;;;5029721;28;20071;-82
2021/07/19 04:55:53;;;;;;;7.25;4.28;;;20.30;99.90;;;;;;5029539;28;20505;-82
2021/07/19 04:58:22;;;;;;;6.65;4.30;;;20.20;99.90;;;;;;5029816;28;20568;-82
2021/07/19 05:00:52;;;;;;;7.40;4.68;;;20.30;99.90;;;;;;5029367;28;20026;-82
2021/07/19 05:03:19;;;;;;;8.15;4.28;;;20.20;99.90;;;;;;5029908;28;20474;-82
2021/07/19 05:05:47;;;;;;;7.53;4.10;;;20.20;99.90;;;;;;5029475;28;20060;-81
2021/07/19 05:08:19;;;;;;;12.73;5.20;;;20.20;99.90;;;;;;5029233;28;20041;-82
2021/07/19 05:10:44;;;;;;;8.75;4.75;;;20.30;99.90;;;;;;5029605;28;20053;-82
2021/07/19 05:13:15;;;;;;;10.27;4.95;;;20.30;99.90;;;;;;5027610;28;20073;-82
2021/07/19 05:15:41;;;;;;;8.57;4.88;;;20.30;99.90;;;;;;5022893;28;20021;-82
2021/07/19 05:18:11;;;;;;;9.52;4.30;;;20.30;99.90;;;;;;5029752;28;20048;-82
2021/07/19 05:20:37;;;;;;;6.72;4.10;;;20.30;99.90;;;;;;5023518;28;20416;-81
2021/07/19 05:23:04;;;;;;;7.38;4.60;;;20.30;99.90;;;;;;5029180;28;20532;-82
2021/07/19 05:25:32;;;;;;;8.15;4.60;;;20.30;99.90;;;;;;5029442;28;20017;-81
2021/07/19 05:28:11;;;;;;;9.50;4.88;;;20.30;99.90;;;;;;5029158;28;20029;-81
2021/07/19 05:30:42;;;;;;;6.40;4.10;;;20.30;99.90;;;;;;5029124;28;20033;-82
2021/07/19 05:33:08;;;;;;;8.38;4.75;;;20.40;99.90;;;;;;5029181;28;20477;-82
2021/07/19 05:35:35;;;;;;;6.40;4.50;;;20.40;99.90;;;;;;5029540;28;20037;-82
2021/07/19 05:38:01;;;;;;;9.15;4.50;;;20.50;99.90;;;;;;5033124;28;20017;-82
2021/07/19 05:40:27;;;;;;;6.45;4.38;;;20.50;99.90;;;;;;5031154;28;20059;-82
2021/07/19 05:42:53;;;;;;;7.88;4.82;;;20.60;99.90;;;;;;5033179;28;20022;-81
2021/07/19 05:45:20;;;;;;;11.98;4.78;;;20.60;99.90;;;;;;5032901;28;20025;-82
2021/07/19 05:47:46;;;;;;;10.15;4.80;;;20.60;99.90;;;;;;5032445;28;20028;-86
2021/07/19 05:50:12;;;;;;;6.40;4.30;;;20.70;99.90;;;;;;5031142;28;20120;-86
2021/07/19 05:52:38;;;;;;;8.23;5.22;;;20.70;99.90;;;;;;5026586;28;20172;-84
2021/07/19 05:55:05;;;;;;;7.32;5.10;;;20.80;99.90;;;;;;5030498;28;20529;-86
2021/07/19 05:57:31;;;;;;;9.13;4.80;;;20.80;99.90;;;;;;5032326;28;20389;-84
2021/07/19 05:59:57;;;;;;;9.85;5.10;;;20.80;99.90;;;;;;5031911;28;20028;-85
2021/07/19 06:02:24;;;;;;;7.80;4.57;;;20.80;99.90;;;;;;5032409;28;20440;-86
2021/07/19 06:04:52;;;;;;;11.38;5.50;;;20.90;99.90;;;;;;5035495;28;20075;-87
2021/07/19 06:07:18;;;;;;;6.53;4.70;;;20.90;99.90;;;;;;5033028;28;20021;-86
2021/07/19 06:09:44;;;;;;;6.47;4.43;;;21.00;99.90;;;;;;5032544;28;20033;-85
2021/07/19 06:12:13;;;;;;;7.13;4.28;;;21.10;99.90;;;;;;5031778;28;20017;-85
2021/07/19 06:14:40;;;;;;;8.60;4.50;;;21.10;99.90;;;;;;5034640;28;20493;-86
2021/07/19 06:17:06;;;;;;;9.60;4.90;;;21.20;99.90;;;;;;5033524;28;20028;-86
2021/07/19 06:19:32;;;;;;;10.40;4.70;;;21.20;99.90;;;;;;5029239;28;20558;-86
2021/07/19 06:21:57;;;;;;;8.85;4.88;;;21.30;99.90;;;;;;5032284;28;20029;-86
2021/07/19 06:24:23;;;;;;;6.30;4.47;;;21.30;99.90;;;;;;5031971;28;20036;-86
2021/07/19 06:26:49;;;;;;;7.35;4.32;;;21.40;99.90;;;;;;5031309;28;20155;-86
2021/07/19 06:29:15;;;;;;;9.35;4.57;;;21.40;99.90;;;;;;5032641;28;20033;-86
2021/07/19 06:31:40;;;;;;;9.45;4.53;;;21.50;99.90;;;;;;5032373;28;20017;-87
2021/07/19 06:34:08;;;;;;;9.05;4.63;;;21.60;99.90;;;;;;5032389;28;20534;-86
2021/07/19 06:36:34;;;;;;;8.02;4.45;;;21.70;99.90;;;;;;5032904;28;20108;-86
2021/07/19 06:39:01;;;;;;;7.53;4.78;;;21.70;99.90;;;;;;5031006;28;20186;-86
2021/07/19 06:41:27;;;;;;;11.02;4.28;;;21.70;99.90;;;;;;5030502;28;20025;-86
2021/07/19 06:43:52;;;;;;;8.77;4.15;;;21.80;99.90;;;;;;5031539;28;20024;-86
2021/07/19 06:46:18;;;;;;;9.30;4.90;;;21.80;99.90;;;;;;5031034;28;20033;-87
2021/07/19 06:48:43;;;;;;;7.95;4.43;;;21.90;99.90;;;;;;5030987;28;20034;-85
2021/07/19 06:51:09;;;;;;;7.32;4.63;;;22.00;99.90;;;;;;5034201;28;20279;-85
2021/07/19 06:53:35;;;;;;;9.15;4.22;;;22.00;99.90;;;;;;5031898;28;20022;-87
2021/07/19 06:56:01;;;;;;;11.50;5.07;;;22.10;99.90;;;;;;5031672;28;20188;-88
2021/07/19 06:58:27;;;;;;;5.40;4.63;;;22.10;99.90;;;;;;5032641;28;20026;-87
2021/07/19 07:00:52;;;;;;;6.10;4.40;;;22.20;99.90;;;;;;5031402;28;20225;-86
2021/07/19 07:03:18;;;;;;;7.05;4.40;;;22.30;99.90;;;;;;5031528;28;20017;-87
2021/07/19 07:05:44;;;;;;;7.43;4.50;;;22.40;99.90;;;;;;5032236;28;20029;-87
2021/07/19 07:08:09;;;;;;;8.20;4.30;;;22.40;99.90;;;;;;5031548;28;20091;-87
2021/07/19 07:10:35;;;;;;;7.28;4.68;;;22.50;99.90;;;;;;5023983;28;20508;-76
2021/07/19 07:13:01;;;;;;;7.38;4.38;;;22.50;99.90;;;;;;5030724;28;20026;-76
2021/07/19 07:15:26;;;;;;;6.78;4.43;;;22.60;99.90;;;;;;5030496;28;20056;-76
2021/07/19 07:17:52;;;;;;;8.65;4.30;;;22.70;99.90;;;;;;5030460;28;20076;-76
2021/07/19 07:20:19;;;;;;;6.97;4.43;;;22.80;99.90;;;;;;5030506;28;20110;-77
2021/07/19 07:22:45;;;;;;;6.07;4.32;;;22.80;99.90;;;;;;5030493;28;20025;-76
2021/07/19 07:25:12;;;;;;;7.55;4.88;;;22.90;99.90;;;;;;5030741;28;20021;-87
2021/07/19 07:27:38;;;;;;;6.78;4.15;;;23.00;99.90;;;;;;5031838;28;20025;-86
2021/07/19 07:30:06;;;;;;;10.32;4.50;;;23.10;99.90;;;;;;5030669;28;20022;-85
2021/07/19 07:32:32;;;;;;;8.15;4.47;;;23.20;99.90;;;;;;5030345;28;20017;-85
2021/07/19 07:34:58;;;;;;;8.77;4.50;;;23.30;99.90;;;;;;5030544;28;20033;-84
2021/07/19 07:37:23;;;;;;;7.35;4.35;;;23.40;99.90;;;;;;5029175;28;20100;-85
2021/07/19 07:39:49;;;;;;;7.43;4.50;;;23.40;99.90;;;;;;5030707;28;20037;-85
2021/07/19 07:42:15;;;;;;;6.50;4.00;;;23.50;99.90;;;;;;5030550;28;20025;-86
2021/07/19 07:44:41;;;;;;;7.35;3.75;;;23.50;99.90;;;;;;5030424;28;20593;-85
2021/07/19 07:47:11;;;;;;;7.60;4.70;;;23.60;99.90;;;;;;5029597;28;20033;-85
2021/07/19 07:49:39;;;;;;;9.10;4.30;;;23.70;99.90;;;;;;5025703;28;20045;-85
2021/07/19 07:52:09;;;;;;;5.68;4.07;;;23.80;99.90;;;;;;5031460;28;20020;-84
2021/07/19 07:54:35;;;;;;;5.50;4.15;;;23.80;99.90;;;;;;5029894;28;20726;-84
2021/07/19 07:57:02;;;;;;;5.18;3.80;;;24.00;99.90;;;;;;5029933;28;20017;-85
2021/07/19 07:59:29;;;;;;;7.95;4.13;;;24.10;99.90;;;;;;5029014;28;20025;-86
2021/07/19 08:01:55;;;;;;;6.93;3.72;;;24.20;99.90;;;;;;5029765;28;20524;-85
2021/07/19 08:04:21;;;;;;;11.43;4.00;;;24.20;99.90;;;;;;5029190;28;20025;-85
2021/07/19 08:06:47;;;;;;;12.93;4.00;;;24.30;99.90;;;;;;5029369;28;20093;-85
2021/07/19 08:09:13;;;;;;;7.15;3.85;;;24.40;99.90;;;;;;5029866;28;20041;-85
2021/07/19 08:11:39;;;;;;;10.60;3.88;;;24.60;99.90;;;;;;5029706;28;20022;-86
2021/07/19 08:14:04;;;;;;;8.70;4.10;;;24.70;99.90;;;;;;5029976;28;20083;-85
2021/07/19 08:16:30;;;;;;;10.88;3.83;;;24.80;99.90;;;;;;5029781;28;20017;-83
2021/07/19 08:18:56;;;;;;;6.30;4.07;;;24.80;99.90;;;;;;5029371;28;20112;-82
2021/07/19 08:21:21;;;;;;;7.97;3.85;;;24.80;99.90;;;;;;5029191;28;20480;-83
2021/07/19 08:23:47;;;;;;;6.45;3.78;;;25.00;99.90;;;;;;5029323;28;20581;-84
2021/07/19 08:26:14;;;;;;;6.32;3.60;;;25.00;99.90;;;;;;5029707;28;20574;-83
2021/07/19 08:28:40;;;;;;;6.25;3.58;;;25.20;99.90;;;;;;5029400;28;20034;-88
2021/07/19 08:31:06;;;;;;;6.50;3.55;;;25.30;99.90;;;;;;5029603;28;20637;-88
2021/07/19 08:33:32;;;;;;;5.95;3.55;;;25.40;99.90;;;;;;5028301;28;20029;-87
2021/07/19 08:35:57;;;;;;;8.32;3.67;;;25.50;99.90;;;;;;5028230;28;20189;-88
2021/07/19 08:38:23;;;;;;;4.57;3.00;;;25.50;99.90;;;;;;5029507;28;20475;-89
2021/07/19 08:40:50;;;;;;;5.65;3.63;;;25.60;99.90;;;;;;5027823;28;20115;-87
2021/07/19 08:43:16;;;;;;;6.15;3.90;;;25.70;99.90;;;;;;5029524;28;20021;-87
2021/07/19 08:45:41;;;;;;;9.75;4.10;;;25.80;99.90;;;;;;5029080;28;20552;-87
2021/07/19 08:48:07;;;;;;;7.80;3.67;;;25.90;99.90;;;;;;5029312;28;20033;-88
2021/07/19 08:50:33;;;;;;;3.90;3.28;;;26.00;99.90;;;;;;5029070;28;20137;-88
2021/07/19 08:52:59;;;;;;;4.70;3.58;;;26.10;99.90;;;;;;5029631;28;20033;-88
2021/07/19 08:55:25;;;;;;;8.55;3.58;;;26.20;99.90;;;;;;5029633;28;20397;-89
2021/07/19 08:57:51;;;;;;;5.35;3.45;;;26.30;99.90;;;;;;5027743;28;20045;-88
2021/07/19 09:00:20;;;;;;;5.60;3.40;;;26.30;99.90;;;;;;5029286;28;20060;-89
2021/07/19 09:02:46;;;;;;;5.30;3.35;;;26.40;99.90;;;;;;5029087;28;20029;-88
2021/07/19 09:05:13;;;;;;;6.47;3.55;;;26.50;99.90;;;;;;5029251;28;20022;-88
2021/07/19 09:07:39;;;;;;;7.50;3.45;;;26.50;99.90;;;;;;5029178;28;20386;-87
2021/07/19 09:10:06;;;;;;;5.07;3.30;;;26.60;99.70;;;;;;5029201;28;20040;-88
2021/07/19 09:12:40;;;;;;;8.07;3.60;;;26.70;99.80;;;;;;5033121;28;20268;-88
2021/07/19 09:15:08;;;;;;;6.50;3.05;;;26.80;99.90;;;;;;5028697;28;20034;-88
2021/07/19 09:17:35;;;;;;;7.38;3.42;;;26.90;99.00;;;;;;5033079;28;20034;-88
2021/07/19 09:20:01;;;;;;;5.88;3.13;;;27.00;98.60;;;;;;5032827;28;20399;-90
2021/07/19 09:22:33;;;;;;;4.95;3.10;;;27.00;99.10;;;;;;5031529;28;20099;-89
2021/07/19 09:25:13;;;;;;;5.55;3.15;;;27.10;99.50;;;;;;5024705;28;20025;-88
2021/07/19 09:28:04;;;;;;;7.72;3.63;;;27.20;99.00;;;;;;5029264;28;20036;-89
2021/07/19 09:30:32;;;;;;;5.00;3.45;;;27.30;98.90;;;;;;5031048;28;20505;-88
2021/07/19 09:33:06;;;;;;;6.20;3.08;;;27.30;98.20;;;;;;5033243;28;20070;-89
2021/07/19 09:35:32;;;;;;;;;;;27.30;98.90;;;;;;5033053;28;20029;-88
2021/07/19 09:38:08;;;;;;;9.68;4.20;;;27.30;98.80;;;;;;5031627;28;20366;-89
2021/07/19 09:40:36;;;;;;;4.05;3.10;;;27.50;97.60;;;;;;5024295;28;20073;-88
2021/07/19 09:43:20;;;;;;;8.48;3.45;;;27.60;97.50;;;;;;5032721;28;20025;-88
2021/07/19 09:45:56;;;;;;;5.65;3.20;;;27.60;97.40;;;;;;5030766;28;20288;-89
2021/07/19 09:48:22;;;;;;;5.20;3.20;;;27.80;96.30;;;;;;5032641;28;20021;-86
2021/07/19 09:50:53;;;;;;;6.82;3.13;;;27.80;97.10;;;;;;5032827;28;20037;-86
2021/07/19 09:53:33;;;;;;;4.95;3.30;;;27.80;95.60;;;;;;5031216;28;20497;-85
2021/07/19 09:56:10;;;;;;;4.10;3.30;;;27.90;95.40;;;;;;5032368;28;20083;-85
2021/07/19 09:58:35;;;;;;;7.00;3.50;;;28.00;95.90;;;;;;5032352;28;20017;-75
2021/07/19 10:01:01;;;;;;;6.43;3.13;;;28.00;96.10;;;;;;5031694;28;20048;-75
2021/07/19 10:03:30;;;;;;;4.63;3.08;;;28.00;95.40;;;;;;5033668;28;20565;-75
2021/07/19 10:06:07;;;;;;;3.88;2.95;;;28.00;95.20;;;;;;5033584;28;20301;-76
2021/07/19 10:08:33;;;;;;;9.13;3.15;;;28.00;95.60;;;;;;5037310;28;20057;-75
2021/07/19 10:10:59;;;;;;;4.13;3.00;;;28.10;95.00;;;;;;5035652;28;20029;-75
2021/07/19 10:13:33;;;;;;;5.20;3.10;;;28.10;94.80;;;;;;5035349;28;20143;-75
2021/07/19 10:16:00;;;;;;;4.70;2.87;;;28.20;94.70;;;;;;5032638;28;20528;-75
2021/07/19 10:18:30;;;;;;;4.95;2.50;;;28.30;95.10;;;;;;5031050;28;20014;-83
2021/07/19 10:20:56;;;;;;;5.05;3.13;;;28.30;94.80;;;;;;5031302;28;20025;-80
2021/07/19 10:23:22;;;;;;;4.40;2.88;;;28.40;94.50;;;;;;5030505;28;20096;-76
2021/07/19 10:25:49;;;;;;;6.25;2.63;;;28.50;94.60;;;;;;5031561;28;20513;-75
2021/07/19 10:28:15;;;;;;;5.45;2.88;;;28.50;93.70;;;;;;5031445;28;20041;-76
2021/07/19 10:30:41;;;;;;;4.65;2.75;;;28.60;93.20;;;;;;5034869;28;20034;-76
2021/07/19 10:33:07;;;;;;;3.00;2.70;;;28.60;93.70;;;;;;5031471;28;20114;-78
2021/07/19 10:35:33;;;;;;;4.82;2.90;;;28.70;93.40;;;;;;5028512;28;20677;-75
2021/07/19 10:38:09;;;;;;;5.22;2.58;;;28.80;93.10;;;;;;5031392;28;20052;-75
2021/07/19 10:40:38;;;;;;;7.35;2.85;;;28.90;93.10;;;;;;5029805;28;20093;-75
2021/07/19 10:43:05;;;;;;;6.15;3.00;;;29.00;92.60;;;;;;5031242;28;20033;-75
2021/07/19 10:45:39;;;;;;;6.15;3.00;;;29.00;93.00;;;;;;5030996;28;20075;-75
2021/07/19 10:48:05;;;;;;;4.75;3.08;;;29.00;92.90;;;;;;5031228;28;20109;-75
2021/07/19 10:50:38;;;;;;;7.50;3.13;;;29.10;93.10;;;;;;5030817;28;20112;-75
2021/07/19 10:53:19;;;;;;;5.32;2.90;;;29.20;92.00;;;;;;5029182;28;20071;-75
2021/07/19 10:55:57;;;;;;;4.20;3.00;;;29.20;91.50;;;;;;5030723;28;20017;-75
2021/07/19 10:58:29;;;;;;;6.32;3.33;;;29.40;91.40;;;;;;5030697;28;20029;-75
2021/07/19 11:00:55;;;;;;;5.95;3.67;;;29.40;91.60;;;;;;5030832;28;20025;-80
2021/07/19 11:03:21;;;;;;;6.40;3.00;;;29.50;90.70;;;;;;5030782;28;20009;-75
2021/07/19 11:05:51;;;;;;;5.43;2.90;;;29.50;90.90;;;;;;5030673;28;20022;-75
2021/07/19 11:08:26;;;;;;;7.50;3.22;;;29.60;91.20;;;;;;5029457;28;20017;-76
2021/07/19 11:10:53;;;;;;;5.95;3.40;;;29.70;90.70;;;;;;5028869;28;20021;-76
2021/07/19 11:13:28;;;;;;;4.45;2.95;;;29.70;90.90;;;;;;5030401;28;20112;-82
2021/07/19 11:15:55;;;;;;;5.90;3.05;;;29.70;90.70;;;;;;5030399;28;20032;-76
2021/07/19 11:18:23;;;;;;;9.05;3.47;;;29.90;89.20;;;;;;5028774;28;20041;-75
2021/07/19 11:20:49;;;;;;;4.38;3.00;;;30.00;88.00;;;;;;5030896;28;20025;-75
2021/07/19 11:23:29;;;;;;;5.53;3.20;;;30.10;88.80;;;;;;5030153;28;20014;-75
2021/07/19 11:25:56;;;;;;;6.47;3.55;;;30.10;89.20;;;;;;5030169;28;20025;-76
2021/07/19 11:28:24;;;;;;;8.00;4.18;;;30.30;87.90;;;;;;5030249;28;20029;-76
2021/07/19 11:31:05;;;;;;;4.00;3.17;;;30.40;89.40;;;;;;5029941;28;20453;-77
2021/07/19 11:33:42;;;;;;;6.13;3.03;;;30.60;87.90;;;;;;5023339;28;20606;-76
2021/07/19 11:36:45;;;;;;;5.93;2.70;;;30.70;87.60;;;;;;5029795;28;20021;-75
2021/07/19 11:39:17;;;;;;;6.57;3.42;;;30.90;86.40;;;;;;5029760;28;20048;-76
2021/07/19 11:41:44;;;;;;;5.03;3.15;;;31.00;83.20;;;;;;5029188;28;20107;-76
2021/07/19 11:44:17;;;;;;;5.28;3.25;;;31.10;82.40;;;;;;5027194;28;20021;-82
2021/07/19 11:46:45;;;;;;;4.47;2.90;;;31.10;81.20;;;;;;5024513;28;20604;-76
2021/07/19 11:49:13;;;;;;;6.85;3.50;;;31.10;83.40;;;;;;5029668;28;20386;-75
2021/07/19 11:51:40;;;;;;;6.38;3.00;;;31.20;84.20;;;;;;5029404;28;20021;-77
2021/07/19 11:54:11;;;;;;;4.07;2.97;;;31.30;83.30;;;;;;5029125;28;20021;-76
2021/07/19 11:56:49;;;;;;;6.65;3.13;;;31.40;83.30;;;;;;5027721;28;20137;-77
2021/07/19 11:59:28;;;;;;;5.97;3.22;;;31.30;80.30;;;;;;5026439;28;20083;-77
2021/07/19 12:02:01;;;;;;;4.03;3.20;;;31.50;80.70;;;;;;5029059;28;20501;-77
2021/07/19 12:04:41;;;;;;;6.38;2.92;;;31.50;79.20;;;;;;5029404;28;20578;-76
2021/07/19 12:07:09;;;;;;;3.60;2.70;;;31.50;79.50;;;;;;5028837;28;20026;-77
2021/07/19 12:09:35;;;;;;;4.22;2.65;;;31.70;80.70;;;;;;5029140;28;20037;-82
2021/07/19 12:12:02;;;;;;;3.60;2.40;;;31.80;78.90;;;;;;5029146;28;20109;-83
2021/07/19 12:14:29;;;;;;;3.28;2.60;;;31.80;78.70;;;;;;5028939;28;20033;-76
2021/07/19 12:16:56;;;;;;;6.68;2.42;;;31.90;78.10;;;;;;5029148;28;20105;-77
2021/07/19 12:19:22;;;;;;;3.35;2.78;;;32.10;78.90;;;;;;5029167;28;20104;-80
2021/07/19 12:21:53;;;;;;;4.25;2.28;;;32.30;76.50;;;;;;5029192;28;20389;-77
2021/07/19 12:24:22;;;;;;;5.07;2.22;;;32.50;75.30;;;;;;5028205;28;20029;-76
2021/07/19 12:26:55;;;;;;;3.05;2.47;;;32.60;75.30;;;;;;5029181;28;20013;-77
2021/07/19 12:29:30;;;;;;;2.95;2.20;;;32.70;75.40;;;;;;5027107;28;20029;-77
2021/07/19 12:32:00;;;;;;;4.93;2.00;;;32.70;74.70;;;;;;5027016;28;20045;-77
2021/07/19 12:34:31;;;;;;;4.75;1.88;;;32.80;74.20;;;;;;5028975;28;20024;-77
2021/07/19 12:37:11;;;;;;;4.47;1.85;;;32.90;74.00;;;;;;5029512;28;20067;-76
2021/07/19 12:39:40;;;;;;;4.30;1.90;;;33.00;73.50;;;;;;5026211;28;20148;-77
2021/07/19 12:42:14;;;;;;;2.33;1.80;;;33.10;71.70;;;;;;5028854;28;20049;-77
2021/07/19 12:44:45;;;;;;;4.82;2.15;;;33.40;70.70;;;;;;5028200;28;20026;-77
2021/07/19 12:47:16;;;;;;;6.45;2.10;;;33.60;69.90;;;;;;5032869;28;20482;-76
2021/07/19 12:49:42;;;;;;;2.97;1.75;;;33.70;68.60;;;;;;5033265;28;20098;-77
2021/07/19 12:52:24;;;;;;;5.03;2.00;;;33.80;67.50;;;;;;5033555;28;20494;-76